Time;durP1;ratioP1;P1;durP2;ratioP2;P2;SDS_P1;SDS_P2;PMS_P1;PMS_P2;Temp;Humidity;BMP_temperature;BMP_pressure;BME280_temperature;BME280_humidity;BME280_pressure;Samples;Min_cycle;Max_cycle;Signal;HPM_P1;HPM_P2
2021/12/09 00:00:23;;;;;;;32.13;14.67;;;1.10;99.90;;;;;;4158039;28;21036;-61
2021/12/09 00:02:25;;;;;;;28.83;14.07;;;1.00;99.90;;;;;;4157830;28;20270;-60
2021/12/09 00:04:30;;;;;;;29.03;14.77;;;1.00;99.90;;;;;;4157158;28;20270;-60
2021/12/09 00:06:32;;;;;;;29.70;14.30;;;1.00;99.90;;;;;;4158044;28;20271;-61
2021/12/09 00:08:34;;;;;;;29.73;14.33;;;1.00;99.90;;;;;;4156575;28;20290;-59
2021/12/09 00:10:36;;;;;;;30.37;13.73;;;1.00;99.90;;;;;;4158197;28;20267;-61
2021/12/09 00:12:37;;;;;;;26.87;13.33;;;1.00;99.90;;;;;;4156956;28;20316;-61
2021/12/09 00:14:39;;;;;;;27.43;13.30;;;0.90;99.90;;;;;;4158348;28;20336;-61
2021/12/09 00:16:41;;;;;;;33.83;15.27;;;0.90;99.90;;;;;;4157046;28;20286;-58
2021/12/09 00:18:43;;;;;;;29.47;13.93;;;1.00;99.90;;;;;;4157959;28;20392;-59
2021/12/09 00:20:46;;;;;;;30.13;13.93;;;1.00;99.90;;;;;;4157049;28;20271;-60
2021/12/09 00:22:47;;;;;;;33.80;14.20;;;1.00;99.90;;;;;;4156712;28;20727;-60
2021/12/09 00:24:48;;;;;;;27.43;14.30;;;1.00;99.90;;;;;;4156961;28;20320;-60
2021/12/09 00:26:50;;;;;;;29.37;14.57;;;1.00;99.90;;;;;;4158060;28;20266;-62
2021/12/09 00:28:51;;;;;;;30.43;14.67;;;1.00;99.90;;;;;;4156823;28;20685;-59
2021/12/09 00:30:52;;;;;;;28.23;15.33;;;1.00;99.90;;;;;;4158150;28;20361;-61
2021/12/09 00:32:53;;;;;;;32.30;15.27;;;0.90;99.90;;;;;;4157359;28;20255;-61
2021/12/09 00:34:56;;;;;;;34.10;16.53;;;1.00;99.90;;;;;;4157089;28;20259;-60
2021/12/09 00:37:27;;;;;;;31.87;14.97;;;0.90;99.90;;;;;;4157814;28;20270;-62
2021/12/09 00:39:28;;;;;;;27.43;14.13;;;0.90;99.90;;;;;;4157397;28;20761;-61
2021/12/09 00:41:29;;;;;;;32.37;15.90;;;0.90;99.90;;;;;;4157376;28;20254;-60
2021/12/09 00:43:31;;;;;;;26.40;13.60;;;0.90;99.90;;;;;;4156881;28;20270;-61
2021/12/09 00:45:32;;;;;;;32.53;16.03;;;1.00;99.90;;;;;;4157216;28;20293;-60
2021/12/09 00:47:34;;;;;;;29.53;14.17;;;1.00;99.90;;;;;;4156595;28;20271;-60
2021/12/09 00:49:35;;;;;;;29.07;14.63;;;0.90;99.90;;;;;;4157453;28;21206;-61
2021/12/09 00:51:36;;;;;;;30.47;14.80;;;0.90;99.90;;;;;;4156400;28;20270;-60
2021/12/09 00:53:38;;;;;;;26.30;14.60;;;1.00;99.90;;;;;;4158024;28;20699;-61
2021/12/09 00:55:39;;;;;;;26.87;14.17;;;1.00;99.90;;;;;;4156521;28;20289;-62
2021/12/09 00:57:41;;;;;;;29.87;14.27;;;1.00;99.90;;;;;;4158477;28;20690;-61
2021/12/09 00:59:42;;;;;;;28.63;14.60;;;1.00;99.90;;;;;;4156730;28;20278;-63
2021/12/09 01:01:43;;;;;;;29.07;13.73;;;0.90;99.90;;;;;;4157674;28;20274;-57
2021/12/09 01:03:45;;;;;;;27.20;13.70;;;0.90;99.90;;;;;;4156583;28;20348;-59
2021/12/09 01:05:46;;;;;;;27.67;14.17;;;0.90;99.90;;;;;;4157652;28;20270;-61
2021/12/09 01:07:47;;;;;;;30.60;13.93;;;0.90;99.90;;;;;;4156844;28;20778;-60
2021/12/09 01:09:48;;;;;;;26.37;13.90;;;1.00;99.90;;;;;;4157215;28;20259;-59
2021/12/09 01:11:50;;;;;;;23.03;11.87;;;1.00;99.90;;;;;;4156845;28;20762;-61
2021/12/09 01:13:51;;;;;;;21.83;10.50;;;1.00;99.90;;;;;;4156916;28;20274;-61
2021/12/09 01:15:52;;;;;;;21.27;9.77;;;1.00;99.90;;;;;;4158270;28;20742;-60
2021/12/09 01:17:54;;;;;;;15.30;7.63;;;1.00;99.90;;;;;;4156508;28;20271;-62
2021/12/09 01:19:55;;;;;;;15.77;7.83;;;1.00;99.90;;;;;;4157386;28;20274;-61
2021/12/09 01:21:57;;;;;;;13.47;7.43;;;1.10;99.90;;;;;;4156372;28;20336;-61
2021/12/09 01:23:58;;;;;;;12.17;6.50;;;1.10;99.90;;;;;;4157286;28;20324;-61
2021/12/09 01:26:02;;;;;;;13.57;7.20;;;1.20;99.90;;;;;;4156564;28;20271;-61
2021/12/09 01:28:07;;;;;;;16.70;7.60;;;1.20;99.90;;;;;;4157359;28;20294;-59
2021/12/09 01:30:13;;;;;;;12.60;7.07;;;1.20;99.90;;;;;;4156852;28;20384;-60
2021/12/09 01:32:14;;;;;;;13.33;7.07;;;1.20;99.90;;;;;;4158203;28;20793;-61
2021/12/09 01:34:16;;;;;;;23.00;10.93;;;1.20;99.90;;;;;;4156269;28;20274;-61
2021/12/09 01:36:17;;;;;;;28.53;12.23;;;1.10;99.90;;;;;;4157741;28;20830;-59
2021/12/09 01:38:19;;;;;;;24.57;12.30;;;1.00;99.90;;;;;;4156231;28;20271;-59
2021/12/09 01:40:21;;;;;;;26.33;13.10;;;0.90;99.90;;;;;;4157566;28;20666;-60
2021/12/09 01:42:23;;;;;;;28.57;14.20;;;0.80;99.90;;;;;;4156626;28;20271;-60
2021/12/09 01:44:25;;;;;;;26.57;14.43;;;0.70;99.90;;;;;;4157244;28;20340;-59
2021/12/09 01:46:26;;;;;;;26.47;12.73;;;0.60;99.90;;;;;;4156648;28;20325;-60
2021/12/09 01:48:27;;;;;;;28.63;13.80;;;0.50;99.90;;;;;;4156221;28;20333;-60
2021/12/09 01:50:32;;;;;;;26.33;12.53;;;0.50;99.90;;;;;;4156956;28;20283;-61
2021/12/09 01:52:33;;;;;;;28.03;12.63;;;0.40;99.90;;;;;;4156092;28;21032;-60
2021/12/09 01:54:34;;;;;;;30.53;12.93;;;0.30;99.90;;;;;;4157111;28;20329;-60
2021/12/09 01:56:36;;;;;;;24.27;12.53;;;0.30;99.90;;;;;;4156081;28;20992;-60
2021/12/09 01:58:37;;;;;;;27.10;13.70;;;0.30;99.90;;;;;;4157503;28;20751;-61
2021/12/09 02:00:38;;;;;;;21.57;11.77;;;0.30;99.90;;;;;;4156808;28;20275;-61
2021/12/09 02:02:41;;;;;;;27.33;12.53;;;0.30;99.90;;;;;;4157468;28;20267;-60
2021/12/09 02:04:43;;;;;;;24.07;12.13;;;0.30;99.90;;;;;;4155951;28;20301;-60
2021/12/09 02:06:44;;;;;;;27.30;12.93;;;0.20;99.90;;;;;;4156885;28;20677;-60
2021/12/09 02:08:46;;;;;;;24.13;12.83;;;0.20;99.90;;;;;;4155986;28;20762;-60
2021/12/09 02:10:48;;;;;;;30.43;12.70;;;0.10;99.90;;;;;;4158488;28;20685;-63
2021/12/09 02:12:51;;;;;;;26.37;13.23;;;0.10;99.90;;;;;;4158623;28;20298;-58
2021/12/09 02:14:54;;;;;;;26.27;12.27;;;0.00;99.90;;;;;;4160354;28;20333;-60
2021/12/09 02:16:55;;;;;;;27.10;12.77;;;0.00;99.90;;;;;;4159454;28;20619;-60
2021/12/09 02:18:56;;;;;;;26.10;13.03;;;-0.10;99.90;;;;;;4159119;28;20297;-60
2021/12/09 02:21:08;;;;;;;33.60;13.77;;;-0.20;99.90;;;;;;4159643;28;20348;-61
2021/12/09 02:23:12;;;;;;;28.13;12.63;;;-0.30;99.90;;;;;;4159310;28;20596;-61
2021/12/09 02:25:17;;;;;;;32.03;13.90;;;-0.30;99.90;;;;;;4159362;28;20642;-60
2021/12/09 02:27:19;;;;;;;30.40;14.70;;;-0.40;99.90;;;;;;4158926;28;20337;-60
2021/12/09 02:29:22;;;;;;;32.57;15.17;;;-0.40;99.90;;;;;;4159547;28;20298;-60
2021/12/09 02:31:24;;;;;;;34.30;14.73;;;-0.40;99.90;;;;;;4158806;28;20321;-60
2021/12/09 02:33:26;;;;;;;33.70;16.20;;;-0.40;99.90;;;;;;4159540;28;20345;-60
2021/12/09 02:35:27;;;;;;;39.07;16.97;;;-0.40;99.90;;;;;;4158861;28;20333;-60
2021/12/09 02:37:28;;;;;;;34.77;16.27;;;-0.40;99.90;;;;;;4159472;28;20271;-60
2021/12/09 02:39:29;;;;;;;40.53;18.07;;;-0.40;99.90;;;;;;4158425;28;20271;-60
2021/12/09 02:41:32;;;;;;;38.17;17.40;;;-0.40;99.90;;;;;;4158509;28;20322;-60
2021/12/09 02:43:34;;;;;;;39.63;16.73;;;-0.40;99.90;;;;;;4158536;28;20344;-61
2021/12/09 02:45:36;;;;;;;42.93;17.70;;;-0.40;99.90;;;;;;4159921;28;20352;-60
2021/12/09 02:47:37;;;;;;;35.17;15.77;;;-0.40;99.90;;;;;;4158169;28;20833;-62
2021/12/09 02:49:39;;;;;;;38.53;17.17;;;-0.40;99.90;;;;;;4159081;28;20340;-61
2021/12/09 02:51:40;;;;;;;40.47;16.90;;;-0.40;99.90;;;;;;4158265;28;20250;-62
2021/12/09 02:53:42;;;;;;;42.63;18.77;;;-0.30;99.90;;;;;;4158833;28;20282;-61
2021/12/09 02:55:44;;;;;;;40.87;17.30;;;-0.30;99.90;;;;;;4158864;28;20325;-62
2021/12/09 02:57:46;;;;;;;40.53;17.90;;;-0.30;99.90;;;;;;4158643;28;20289;-60
2021/12/09 02:59:47;;;;;;;40.77;19.10;;;-0.30;99.90;;;;;;4158730;28;21207;-61
2021/12/09 03:01:57;;;;;;;44.67;19.23;;;-0.20;99.90;;;;;;4158542;28;20267;-61
2021/12/09 03:04:00;;;;;;;38.00;17.35;;;-0.20;99.90;;;;;;4158723;28;20393;-60
2021/12/09 03:06:02;;;;;;;40.13;18.20;;;-0.20;99.90;;;;;;4158596;28;20087;-61
2021/12/09 03:08:03;;;;;;;39.73;17.90;;;-0.20;99.90;;;;;;4159885;28;20593;-63
2021/12/09 03:10:17;;;;;;;38.23;17.20;;;-0.20;99.90;;;;;;4158198;28;20312;-59
2021/12/09 03:12:26;;;;;;;41.40;16.97;;;-0.10;99.90;;;;;;4159240;28;20282;-60
2021/12/09 03:14:27;;;;;;;44.23;18.77;;;-0.20;99.90;;;;;;4157558;28;20271;-63
2021/12/09 03:16:29;;;;;;;43.77;17.93;;;-0.20;99.90;;;;;;4158773;28;20275;-61
2021/12/09 03:18:37;;;;;;;41.77;17.63;;;-0.20;99.90;;;;;;4157652;28;20271;-62
2021/12/09 03:20:38;;;;;;;43.27;17.63;;;-0.20;99.90;;;;;;4159045;28;20320;-62
2021/12/09 03:22:40;;;;;;;39.67;17.43;;;-0.30;99.90;;;;;;4157976;28;21134;-60
2021/12/09 03:24:41;;;;;;;45.33;17.83;;;-0.30;99.90;;;;;;4158927;28;20259;-60
2021/12/09 03:26:54;;;;;;;46.33;19.37;;;-0.30;99.90;;;;;;4157828;28;20259;-60
2021/12/09 03:29:02;;;;;;;41.00;16.53;;;-0.40;99.90;;;;;;4159124;28;20361;-60
2021/12/09 03:31:03;;;;;;;45.33;18.07;;;-0.40;99.90;;;;;;4157675;28;20816;-60
2021/12/09 03:33:05;;;;;;;43.03;18.23;;;-0.40;99.90;;;;;;4158972;28;20352;-61
2021/12/09 03:35:08;;;;;;;38.70;16.23;;;-0.40;99.90;;;;;;4157762;28;20270;-62
2021/12/09 03:37:12;;;;;;;41.63;17.20;;;-0.40;99.90;;;;;;4158450;28;20275;-61
2021/12/09 03:39:18;;;;;;;41.10;17.40;;;-0.40;99.90;;;;;;4157531;28;20333;-60
2021/12/09 03:41:21;;;;;;;47.67;18.40;;;-0.30;99.90;;;;;;4158496;28;20276;-60
2021/12/09 03:43:23;;;;;;;43.00;18.90;;;-0.40;99.90;;;;;;4157780;28;20294;-61
2021/12/09 03:45:25;;;;;;;44.10;17.17;;;-0.30;99.90;;;;;;4157699;28;20309;-60
2021/12/09 03:47:28;;;;;;;41.87;17.40;;;-0.40;99.90;;;;;;4157666;28;20251;-65
2021/12/09 03:49:30;;;;;;;41.47;16.67;;;-0.40;99.90;;;;;;4157447;28;20356;-63
2021/12/09 03:51:33;;;;;;;47.13;19.17;;;-0.40;99.90;;;;;;4157982;28;20258;-62
2021/12/09 03:53:35;;;;;;;37.10;16.57;;;-0.40;99.90;;;;;;4157132;28;20289;-63
2021/12/09 03:55:36;;;;;;;39.10;16.53;;;-0.40;99.90;;;;;;4158507;28;20267;-61
2021/12/09 03:57:37;;;;;;;39.17;16.37;;;-0.50;99.90;;;;;;4157495;28;21253;-59
2021/12/09 03:59:39;;;;;;;42.17;16.30;;;-0.60;99.90;;;;;;4158577;28;20336;-59
2021/12/09 04:01:41;;;;;;;39.60;16.57;;;-0.60;99.90;;;;;;4159052;28;20275;-59
2021/12/09 04:03:43;;;;;;;40.60;17.30;;;-0.70;99.90;;;;;;4159643;28;20317;-63
2021/12/09 04:05:46;;;;;;;37.03;14.87;;;-0.70;99.90;;;;;;4157066;28;20258;-56
2021/12/09 04:07:47;;;;;;;43.20;17.37;;;-0.80;99.90;;;;;;4158763;28;20298;-62
2021/12/09 04:09:48;;;;;;;42.03;15.93;;;-0.80;99.90;;;;;;4157346;28;20782;-59
2021/12/09 04:11:50;;;;;;;42.13;15.20;;;-0.80;99.90;;;;;;4157830;28;20271;-61
2021/12/09 04:13:51;;;;;;;39.00;16.27;;;-0.80;99.90;;;;;;4157077;28;20251;-56
2021/12/09 04:15:53;;;;;;;41.50;16.73;;;-0.70;99.90;;;;;;4157633;28;20258;-61
2021/12/09 04:17:54;;;;;;;40.90;16.27;;;-0.70;99.90;;;;;;4157701;28;20266;-58
2021/12/09 04:19:56;;;;;;;38.00;16.67;;;-0.70;99.90;;;;;;4157479;28;20313;-60
2021/12/09 04:21:57;;;;;;;41.33;18.07;;;-0.70;99.90;;;;;;4157038;28;20263;-56
2021/12/09 04:23:58;;;;;;;37.10;14.83;;;-0.70;99.90;;;;;;4157103;28;20388;-61
2021/12/09 04:26:00;;;;;;;42.97;16.53;;;-0.60;99.90;;;;;;4157999;28;20274;-59
2021/12/09 04:28:02;;;;;;;37.30;16.03;;;-0.60;99.90;;;;;;4156618;28;20271;-60
2021/12/09 04:30:04;;;;;;;42.13;17.13;;;-0.60;99.90;;;;;;4157907;28;21132;-58
2021/12/09 04:32:05;;;;;;;43.43;16.80;;;-0.60;99.90;;;;;;4157190;28;20840;-58
2021/12/09 04:34:06;;;;;;;45.03;17.90;;;-0.60;99.90;;;;;;4157169;28;20275;-61
2021/12/09 04:36:09;;;;;;;37.97;16.03;;;-0.50;99.90;;;;;;4156639;28;20645;-62
2021/12/09 04:38:10;;;;;;;36.13;17.53;;;-0.50;99.90;;;;;;4157647;28;20727;-59
2021/12/09 04:40:13;;;;;;;43.00;16.20;;;-0.50;99.90;;;;;;4156822;28;20341;-59
2021/12/09 04:42:14;;;;;;;46.13;16.57;;;-0.50;99.90;;;;;;4157876;28;20279;-61
2021/12/09 04:44:15;;;;;;;36.00;16.17;;;-0.50;99.90;;;;;;4156491;28;20289;-59
2021/12/09 04:46:17;;;;;;;39.70;16.37;;;-0.50;99.90;;;;;;4157560;28;20332;-60
2021/12/09 04:48:18;;;;;;;35.83;16.07;;;-0.50;99.90;;;;;;4156152;28;20332;-55
2021/12/09 04:50:19;;;;;;;37.90;16.77;;;-0.50;99.90;;;;;;4157109;28;20278;-60
2021/12/09 04:52:20;;;;;;;36.67;16.13;;;-0.50;99.90;;;;;;4157068;28;20332;-61
2021/12/09 04:54:21;;;;;;;34.47;16.30;;;-0.40;99.90;;;;;;4155863;28;20368;-57
2021/12/09 04:56:22;;;;;;;36.03;16.00;;;-0.40;99.90;;;;;;4157043;28;20742;-61
2021/12/09 04:58:24;;;;;;;36.70;16.80;;;-0.30;99.90;;;;;;4156222;28;20258;-61
2021/12/09 05:00:28;;;;;;;33.63;16.77;;;-0.30;99.90;;;;;;4157094;28;20809;-59
2021/12/09 05:03:03;;;;;;;34.30;16.53;;;-0.30;99.90;;;;;;4156684;28;20313;-62
2021/12/09 05:04:51;;;;;;;35.30;17.13;;;-0.30;99.90;;;;;;4157021;28;20333;-58
2021/12/09 05:06:52;;;;;;;35.83;17.10;;;-0.20;99.90;;;;;;4156056;28;21100;-60
2021/12/09 05:08:53;;;;;;;37.40;17.83;;;-0.30;99.90;;;;;;4155610;28;20341;-61
2021/12/09 05:11:12;;;;;;;38.03;16.90;;;-0.20;99.90;;;;;;4155757;28;20275;-61
2021/12/09 05:13:13;;;;;;;35.27;16.40;;;-0.20;99.90;;;;;;4157590;28;20283;-62
2021/12/09 05:15:14;;;;;;;39.87;18.00;;;-0.20;99.90;;;;;;4155882;28;20344;-61
2021/12/09 05:17:17;;;;;;;35.27;16.67;;;-0.20;99.90;;;;;;4157395;28;20834;-62
2021/12/09 05:19:19;;;;;;;32.93;15.53;;;-0.20;99.90;;;;;;4155646;28;20267;-61
2021/12/09 05:21:21;;;;;;;32.77;15.43;;;-0.20;99.90;;;;;;4156762;28;20326;-61
2021/12/09 05:23:23;;;;;;;34.73;16.30;;;-0.20;99.90;;;;;;4155417;28;20263;-62
2021/12/09 05:25:24;;;;;;;55.20;16.77;;;-0.10;99.90;;;;;;4157036;28;20279;-61
2021/12/09 05:27:25;;;;;;;34.63;15.43;;;-0.10;99.90;;;;;;4156145;28;20833;-64
2021/12/09 05:29:36;;;;;;;27.17;15.47;;;-0.10;99.90;;;;;;4156133;28;20374;-62
2021/12/09 05:33:58;;;;;;;29.17;14.00;;;0.00;99.90;;;;;;4156690;28;19962;-61
2021/12/09 05:36:00;;;;;;;31.53;14.03;;;0.00;99.90;;;;;;4155962;28;20290;-60
2021/12/09 05:38:01;;;;;;;26.07;13.70;;;0.00;99.90;;;;;;4156316;28;20328;-61
2021/12/09 05:40:03;;;;;;;25.67;12.43;;;0.00;99.90;;;;;;4155806;28;20313;-62
2021/12/09 05:42:06;;;;;;;27.80;12.63;;;0.00;99.90;;;;;;4155914;28;20255;-63
2021/12/09 05:44:08;;;;;;;23.70;11.70;;;0.00;99.90;;;;;;4156270;28;20267;-61
2021/12/09 05:46:10;;;;;;;25.13;11.77;;;0.00;99.90;;;;;;4157703;28;20255;-62
2021/12/09 05:48:12;;;;;;;22.83;10.33;;;0.00;99.90;;;;;;4158266;28;20320;-61
2021/12/09 05:50:13;;;;;;;23.60;11.33;;;0.00;99.90;;;;;;4158189;28;20655;-61
2021/12/09 05:52:16;;;;;;;18.17;9.77;;;0.00;99.90;;;;;;4144245;28;20275;-62
2021/12/09 05:54:17;;;;;;;20.03;10.80;;;0.00;99.90;;;;;;4158377;28;20279;-62
2021/12/09 05:56:19;;;;;;;22.17;10.60;;;0.00;99.90;;;;;;4158136;28;21122;-63
2021/12/09 05:58:22;;;;;;;17.77;9.67;;;0.00;99.90;;;;;;4157244;28;20271;-62
2021/12/09 06:00:23;;;;;;;18.13;9.83;;;0.00;99.90;;;;;;4158528;28;20332;-67
2021/12/09 06:02:24;;;;;;;19.73;11.23;;;0.00;99.90;;;;;;4159022;28;20377;-62
2021/12/09 06:04:26;;;;;;;20.77;10.40;;;0.00;99.90;;;;;;4158468;28;20379;-62
2021/12/09 06:06:27;;;;;;;19.63;10.23;;;0.00;99.90;;;;;;4168242;28;20824;-62
2021/12/09 06:08:28;;;;;;;18.40;10.03;;;0.00;99.90;;;;;;4169455;28;20262;-61
2021/12/09 06:10:30;;;;;;;21.63;10.30;;;0.00;99.90;;;;;;4159081;28;20451;-65
2021/12/09 06:12:32;;;;;;;20.70;10.90;;;0.00;99.90;;;;;;4158393;28;20290;-66
2021/12/09 06:14:34;;;;;;;20.83;9.70;;;0.00;99.90;;;;;;4156884;28;20746;-62
2021/12/09 06:16:35;;;;;;;19.73;10.13;;;0.00;99.90;;;;;;4168608;28;20313;-60
2021/12/09 06:18:37;;;;;;;19.17;9.83;;;0.00;99.90;;;;;;4167011;28;21105;-62
2021/12/09 06:20:38;;;;;;;16.60;9.40;;;0.10;99.90;;;;;;4157829;28;20278;-63
2021/12/09 06:22:39;;;;;;;16.97;9.60;;;0.10;99.90;;;;;;4159516;28;20691;-62
2021/12/09 06:24:41;;;;;;;17.90;9.83;;;0.00;99.90;;;;;;4156880;28;20313;-61
2021/12/09 06:26:42;;;;;;;24.13;10.17;;;0.10;99.90;;;;;;4159299;28;20378;-63
2021/12/09 06:28:43;;;;;;;18.77;9.63;;;0.10;99.90;;;;;;4157542;28;20271;-63
2021/12/09 06:30:45;;;;;;;19.10;9.93;;;0.10;99.90;;;;;;4159448;28;20279;-63
2021/12/09 06:32:47;;;;;;;17.63;9.33;;;0.10;99.90;;;;;;4158869;28;20271;-62
2021/12/09 06:34:48;;;;;;;20.50;10.37;;;0.10;99.90;;;;;;4158483;28;20259;-56
2021/12/09 06:36:49;;;;;;;20.23;9.33;;;0.10;99.90;;;;;;4156883;28;20294;-65
2021/12/09 06:38:50;;;;;;;17.07;8.90;;;0.10;99.90;;;;;;4152906;28;20291;-64
2021/12/09 06:40:51;;;;;;;21.73;10.07;;;0.10;99.90;;;;;;4163203;28;20312;-65
2021/12/09 06:42:53;;;;;;;19.43;9.03;;;0.10;99.90;;;;;;4164644;28;20817;-63
2021/12/09 06:44:54;;;;;;;16.73;8.87;;;0.10;99.90;;;;;;4151599;28;20290;-61
2021/12/09 06:46:57;;;;;;;20.10;10.27;;;0.10;99.90;;;;;;4154760;28;20634;-61
2021/12/09 06:48:58;;;;;;;20.33;10.03;;;0.20;99.90;;;;;;4155961;28;20282;-58
2021/12/09 06:51:01;;;;;;;20.43;9.97;;;0.20;99.90;;;;;;4157358;28;20689;-60
2021/12/09 06:53:04;;;;;;;22.20;10.50;;;0.20;99.90;;;;;;4159095;28;20275;-61
2021/12/09 06:55:07;;;;;;;20.90;9.80;;;0.20;99.90;;;;;;4157715;28;20251;-59
2021/12/09 06:57:08;;;;;;;19.63;10.23;;;0.20;99.90;;;;;;4158660;28;20259;-60
2021/12/09 06:59:10;;;;;;;19.83;9.87;;;0.20;99.90;;;;;;4157270;28;20864;-61
2021/12/09 07:01:11;;;;;;;26.50;11.00;;;0.20;99.90;;;;;;4156293;28;20271;-61
2021/12/09 07:03:16;;;;;;;17.70;8.87;;;0.30;99.90;;;;;;4154956;28;20283;-61
2021/12/09 07:05:19;;;;;;;18.80;9.13;;;0.30;99.90;;;;;;4155025;28;20685;-60
2021/12/09 07:07:20;;;;;;;18.93;9.27;;;0.30;99.90;;;;;;4156301;28;20316;-59
2021/12/09 07:09:27;;;;;;;13.80;7.33;;;0.30;99.90;;;;;;4157594;28;20298;-60
2021/12/09 07:11:29;;;;;;;17.17;8.07;;;0.40;99.90;;;;;;4155872;28;20726;-62
2021/12/09 07:13:31;;;;;;;14.23;8.00;;;0.40;99.90;;;;;;4156691;28;20271;-62
2021/12/09 07:15:33;;;;;;;13.17;7.47;;;0.40;99.90;;;;;;4155795;28;20316;-61
2021/12/09 07:17:35;;;;;;;14.53;7.70;;;0.40;99.90;;;;;;4156911;28;20317;-60
2021/12/09 07:19:37;;;;;;;18.30;8.27;;;0.40;99.90;;;;;;4155923;28;21008;-60
2021/12/09 07:21:38;;;;;;;14.83;7.83;;;0.40;99.90;;;;;;4156158;28;20362;-60
2021/12/09 07:23:40;;;;;;;16.10;8.17;;;0.40;99.90;;;;;;4156221;28;20322;-60
2021/12/09 07:25:42;;;;;;;16.10;8.57;;;0.40;99.90;;;;;;4156010;28;20384;-62
2021/12/09 07:27:43;;;;;;;14.53;7.40;;;0.50;99.90;;;;;;4156975;28;20328;-61
2021/12/09 07:29:44;;;;;;;16.00;7.50;;;0.50;99.90;;;;;;4156081;28;21370;-61
2021/12/09 07:31:46;;;;;;;13.43;6.40;;;0.50;99.90;;;;;;4153676;28;20271;-60
2021/12/09 07:33:47;;;;;;;14.07;6.47;;;0.60;99.90;;;;;;4156442;28;20741;-62
2021/12/09 07:35:48;;;;;;;16.70;7.93;;;0.60;99.90;;;;;;4158361;28;20321;-63
2021/12/09 07:37:49;;;;;;;20.67;7.47;;;0.60;99.90;;;;;;4157073;28;20310;-62
2021/12/09 07:39:51;;;;;;;14.77;7.03;;;0.60;99.90;;;;;;4158766;28;20678;-61
2021/12/09 07:41:52;;;;;;;19.47;8.20;;;0.60;99.90;;;;;;4157130;28;21112;-61
2021/12/09 07:43:53;;;;;;;17.60;7.37;;;0.70;99.90;;;;;;4165611;28;20811;-62
2021/12/09 07:45:55;;;;;;;15.10;8.10;;;0.70;99.90;;;;;;4173071;28;20819;-62
2021/12/09 07:47:56;;;;;;;15.20;7.43;;;0.70;99.90;;;;;;4174728;28;20262;-61
2021/12/09 07:49:57;;;;;;;14.10;6.83;;;0.70;99.90;;;;;;4170118;28;20298;-63
2021/12/09 07:51:58;;;;;;;14.00;6.57;;;0.70;99.90;;;;;;4156304;28;20372;-66
2021/12/09 07:54:01;;;;;;;12.47;6.37;;;0.70;99.90;;;;;;4157363;28;20251;-60
2021/12/09 07:56:02;;;;;;;13.40;7.00;;;0.80;99.90;;;;;;4157156;28;20262;-63
2021/12/09 07:58:03;;;;;;;14.50;7.10;;;0.80;99.90;;;;;;4157677;28;20333;-62
2021/12/09 08:00:11;;;;;;;14.53;7.67;;;0.80;99.90;;;;;;4156970;28;20348;-60
2021/12/09 08:02:12;;;;;;;19.03;8.57;;;0.80;99.90;;;;;;4156010;28;20287;-62
2021/12/09 08:04:14;;;;;;;21.13;11.60;;;0.80;99.90;;;;;;4157213;28;21077;-60
2021/12/09 08:06:15;;;;;;;24.27;13.20;;;0.90;99.90;;;;;;4157545;28;20324;-64
2021/12/09 08:08:16;;;;;;;16.70;9.10;;;0.90;99.90;;;;;;4157476;28;20333;-62
2021/12/09 08:10:19;;;;;;;19.07;8.47;;;0.90;99.90;;;;;;4174407;28;20716;-61
2021/12/09 08:12:20;;;;;;;22.77;9.43;;;0.90;99.90;;;;;;4164879;28;20790;-62
2021/12/09 08:14:21;;;;;;;15.47;8.00;;;0.90;99.90;;;;;;4158248;28;20317;-61
2021/12/09 08:16:23;;;;;;;18.50;9.93;;;0.90;99.90;;;;;;4155744;28;20270;-61
2021/12/09 08:18:29;;;;;;;16.10;8.70;;;1.00;99.90;;;;;;4157432;28;20274;-60
2021/12/09 08:20:32;;;;;;;15.10;7.53;;;1.00;99.90;;;;;;4156641;28;20759;-64
2021/12/09 08:22:35;;;;;;;15.37;7.40;;;1.00;99.90;;;;;;4156714;28;20336;-63
2021/12/09 08:24:36;;;;;;;15.67;7.47;;;1.00;99.90;;;;;;4156482;28;20297;-61
2021/12/09 08:26:38;;;;;;;15.03;7.13;;;1.00;99.90;;;;;;4157460;28;20309;-61
2021/12/09 08:28:39;;;;;;;14.90;7.33;;;1.10;99.90;;;;;;4154425;28;20825;-61
2021/12/09 08:30:41;;;;;;;14.17;6.93;;;1.10;99.90;;;;;;4142471;28;20302;-60
2021/12/09 08:32:43;;;;;;;16.43;7.33;;;1.10;99.90;;;;;;4155973;28;20266;-62
2021/12/09 08:34:44;;;;;;;20.07;7.97;;;1.10;99.90;;;;;;4156738;28;20263;-63
2021/12/09 08:36:45;;;;;;;15.90;7.67;;;1.20;99.90;;;;;;4156743;28;20783;-62
2021/12/09 08:38:46;;;;;;;13.87;6.73;;;1.20;99.90;;;;;;4163213;28;21056;-63
2021/12/09 08:40:48;;;;;;;15.67;6.80;;;1.20;99.90;;;;;;4172650;28;20270;-62
2021/12/09 08:42:49;;;;;;;12.27;6.60;;;1.30;99.90;;;;;;4164092;28;20255;-63
2021/12/09 08:44:53;;;;;;;13.43;6.77;;;1.30;99.90;;;;;;4157829;28;20263;-64
2021/12/09 08:46:55;;;;;;;13.33;6.90;;;1.40;99.90;;;;;;4156425;28;20336;-62
2021/12/09 08:48:56;;;;;;;12.97;6.43;;;1.40;99.90;;;;;;4157764;28;20360;-61
2021/12/09 08:50:57;;;;;;;15.63;7.77;;;1.40;99.90;;;;;;4156226;28;20302;-60
2021/12/09 08:53:03;;;;;;;12.17;6.60;;;1.40;99.90;;;;;;4157405;28;20279;-58
2021/12/09 08:55:05;;;;;;;14.57;7.27;;;1.40;99.90;;;;;;4156434;28;20275;-61
2021/12/09 08:57:06;;;;;;;23.00;7.27;;;1.40;99.90;;;;;;4156923;28;20316;-60
2021/12/09 08:59:08;;;;;;;13.73;7.67;;;1.40;99.90;;;;;;4156890;28;20271;-61
2021/12/09 09:01:12;;;;;;;11.30;5.87;;;1.40;99.90;;;;;;4156584;28;20313;-61
2021/12/09 09:03:14;;;;;;;15.40;6.97;;;1.40;99.90;;;;;;4156167;28;20297;-61
2021/12/09 09:05:15;;;;;;;14.70;7.43;;;1.40;99.90;;;;;;4155692;28;20344;-65
2021/12/09 09:07:17;;;;;;;21.93;9.03;;;1.40;99.90;;;;;;4154936;28;20309;-64
2021/12/09 09:09:18;;;;;;;18.53;8.47;;;1.40;99.90;;;;;;4156696;28;20325;-62
2021/12/09 09:11:19;;;;;;;17.10;8.10;;;1.30;99.90;;;;;;4157578;28;20298;-61
2021/12/09 09:13:21;;;;;;;14.70;7.50;;;1.30;99.90;;;;;;4156367;28;20271;-59
2021/12/09 09:15:25;;;;;;;15.47;7.50;;;1.40;99.90;;;;;;4157077;28;20266;-60
2021/12/09 09:17:26;;;;;;;13.77;7.33;;;1.40;99.90;;;;;;4155720;28;20263;-62
2021/12/09 09:19:27;;;;;;;16.80;7.77;;;1.30;99.90;;;;;;4158180;28;20270;-59
2021/12/09 09:21:29;;;;;;;14.00;7.77;;;1.20;99.90;;;;;;4158951;28;20313;-57
2021/12/09 09:23:30;;;;;;;17.80;8.43;;;1.30;99.90;;;;;;4160464;28;20287;-62
2021/12/09 09:25:31;;;;;;;20.33;8.17;;;1.30;99.90;;;;;;4159479;28;20328;-60
2021/12/09 09:27:32;;;;;;;17.17;8.33;;;1.30;99.90;;;;;;4160167;28;20321;-57
2021/12/09 09:29:37;;;;;;;19.50;9.30;;;1.20;99.90;;;;;;4159562;28;20254;-59
2021/12/09 09:31:40;;;;;;;15.23;8.70;;;1.10;99.90;;;;;;4158006;28;21026;-60
2021/12/09 09:33:41;;;;;;;20.00;9.40;;;1.10;99.90;;;;;;4159506;28;20275;-60
2021/12/09 09:35:44;;;;;;;20.27;9.77;;;1.10;99.90;;;;;;4160626;28;20819;-61
2021/12/09 09:37:46;;;;;;;18.27;8.27;;;1.00;99.90;;;;;;4158215;28;20259;-61
2021/12/09 09:39:48;;;;;;;20.63;8.90;;;1.00;99.90;;;;;;4156649;28;20278;-61
2021/12/09 09:41:58;;;;;;;26.27;10.07;;;1.00;99.90;;;;;;4155691;28;20348;-60
2021/12/09 09:44:12;;;;;;;19.10;9.43;;;1.00;99.90;;;;;;4156805;28;20278;-61
2021/12/09 09:46:23;;;;;;;21.97;10.13;;;1.10;99.90;;;;;;4160493;28;20095;-61
2021/12/09 09:48:24;;;;;;;17.77;9.77;;;1.10;99.90;;;;;;4157609;28;20802;-59
2021/12/09 09:50:26;;;;;;;23.60;10.10;;;1.10;99.90;;;;;;4156447;28;20388;-68
2021/12/09 09:52:28;;;;;;;28.60;11.50;;;1.10;99.90;;;;;;4158027;28;20266;-60
2021/12/09 09:54:29;;;;;;;20.60;10.77;;;1.10;99.90;;;;;;4158766;28;20267;-57
2021/12/09 09:56:34;;;;;;;28.20;10.70;;;1.00;99.90;;;;;;4158157;28;20267;-59
2021/12/09 09:58:35;;;;;;;24.10;10.70;;;1.00;99.90;;;;;;4159752;28;20259;-59
2021/12/09 10:00:36;;;;;;;19.63;9.93;;;1.00;99.90;;;;;;4158395;28;20274;-60
2021/12/09 10:02:38;;;;;;;24.87;11.30;;;1.00;99.90;;;;;;4143568;28;20311;-60
2021/12/09 10:04:48;;;;;;;31.27;11.87;;;1.00;99.90;;;;;;4142782;28;20260;-61
2021/12/09 10:06:49;;;;;;;27.02;11.15;;;1.10;99.90;;;;;;4143095;28;20298;-58
2021/12/09 10:08:51;;;;;;;22.97;11.23;;;1.00;99.90;;;;;;4152794;28;20041;-61
2021/12/09 10:10:52;;;;;;;24.93;10.93;;;0.90;99.90;;;;;;4158734;28;20313;-60
2021/12/09 10:13:02;;;;;;;28.57;11.93;;;0.90;99.90;;;;;;4149843;28;20255;-68
2021/12/09 10:15:04;;;;;;;24.42;11.98;;;0.90;99.90;;;;;;4156894;28;20344;-60
2021/12/09 10:17:05;;;;;;;26.40;12.60;;;0.90;99.90;;;;;;4158580;28;20556;-61
2021/12/09 10:19:20;;;;;;;25.67;11.47;;;0.90;99.90;;;;;;4155802;28;20289;-59
2021/12/09 10:21:28;;;;;;;27.17;11.67;;;0.90;99.90;;;;;;4155816;28;20344;-62
2021/12/09 10:23:42;;;;;;;24.53;10.67;;;1.00;99.90;;;;;;4159574;28;20270;-58
2021/12/09 10:25:43;;;;;;;22.73;10.70;;;1.00;99.90;;;;;;4156278;28;21104;-62
2021/12/09 10:27:55;;;;;;;27.50;12.30;;;1.00;99.90;;;;;;4159582;28;20332;-59
2021/12/09 10:30:02;;;;;;;30.50;13.03;;;1.00;99.90;;;;;;4175257;28;20278;-60
2021/12/09 10:32:11;;;;;;;32.97;13.23;;;1.00;99.90;;;;;;4160804;28;20694;-61